createdAt,value
2018-10-17T00:01:58.381Z,65.80
2018-10-17T00:04:33.343Z,65.60
2018-10-17T00:07:03.335Z,65.80
2018-10-17T00:09:33.963Z,65.70
2018-10-17T00:12:05.582Z,65.80
2018-10-17T00:14:36.314Z,65.80
2018-10-17T00:17:08.742Z,65.90
2018-10-17T00:19:39.423Z,65.80
2018-10-17T00:22:10.174Z,66.60
2018-10-17T00:24:41.482Z,65.90
2018-10-17T00:27:12.551Z,66.10
2018-10-17T00:29:44.084Z,66.20
2018-10-17T00:32:14.580Z,66.30
2018-10-17T00:34:44.849Z,66.40
2018-10-17T00:37:16.777Z,66.20
2018-10-17T00:39:47.206Z,66.20
2018-10-17T00:42:18.699Z,66.10
2018-10-17T00:44:49.840Z,66.10
2018-10-17T00:47:25.250Z,66.00
2018-10-17T00:49:57.413Z,66.60
2018-10-17T00:52:31.295Z,65.90
2018-10-17T00:55:02.564Z,65.70
2018-10-17T00:57:33.732Z,65.60
2018-10-17T01:00:04.423Z,65.60
2018-10-17T01:02:34.401Z,65.80
2018-10-17T01:05:07.635Z,65.80
2018-10-17T01:07:37.718Z,65.80
2018-10-17T01:10:08.465Z,65.90
2018-10-17T01:12:40.325Z,66.00
2018-10-17T01:15:11.327Z,66.10
2018-10-17T01:17:41.804Z,66.10
2018-10-17T01:20:12.208Z,66.30
2018-10-17T01:22:47.210Z,66.40
2018-10-17T01:25:20.949Z,66.40
2018-10-17T01:27:51.599Z,66.30
2018-10-17T01:30:23.880Z,66.20
2018-10-17T01:32:55.326Z,66.40
2018-10-17T01:35:28.578Z,66.50
2018-10-17T01:38:00.307Z,66.70
2018-10-17T01:40:31.929Z,66.70
2018-10-17T01:43:03.204Z,66.80
2018-10-17T01:45:34.332Z,66.80
2018-10-17T01:48:04.172Z,66.80
2018-10-17T01:50:35.772Z,66.80
2018-10-17T01:53:05.992Z,66.70
2018-10-17T01:55:36.784Z,66.80
2018-10-17T01:58:08.140Z,66.70
2018-10-17T02:00:38.458Z,66.80
2018-10-17T02:03:11.508Z,66.70
2018-10-17T02:05:41.793Z,66.70
2018-10-17T02:08:14.744Z,66.70
2018-10-17T02:10:45.483Z,66.80
2018-10-17T02:13:16.836Z,66.70
2018-10-17T02:15:48.280Z,66.70
2018-10-17T02:18:18.971Z,66.70
2018-10-17T02:20:53.208Z,66.70
2018-10-17T02:23:23.656Z,66.70
2018-10-17T02:25:54.306Z,66.70
2018-10-17T02:28:28.754Z,66.80
2018-10-17T02:30:59.755Z,66.80
2018-10-17T02:33:37.583Z,66.90
2018-10-17T02:36:08.988Z,67.00
2018-10-17T02:38:41.088Z,67.10
2018-10-17T02:41:11.735Z,67.10
2018-10-17T02:43:42.036Z,67.20
2018-10-17T02:46:13.662Z,68.10
2018-10-17T02:48:45.342Z,67.30
2018-10-17T02:51:19.256Z,67.30
2018-10-17T02:53:49.464Z,67.30
2018-10-17T02:56:20.067Z,67.30
2018-10-17T02:58:51.312Z,67.40
2018-10-17T03:01:21.959Z,67.30
2018-10-17T03:03:52.661Z,67.50
2018-10-17T03:06:25.712Z,67.60
2018-10-17T03:08:57.699Z,67.60
2018-10-17T03:11:28.001Z,67.70
2018-10-17T03:13:58.668Z,67.80
2018-10-17T03:16:29.984Z,67.50
2018-10-17T03:19:01.407Z,67.60
2018-10-17T03:21:32.811Z,67.60
2018-10-17T03:24:04.383Z,67.60
2018-10-17T03:26:35.492Z,67.50
2018-10-17T03:29:06.075Z,67.50
2018-10-17T03:31:36.045Z,67.60
2018-10-17T03:34:06.176Z,67.50
2018-10-17T03:36:37.686Z,67.30
2018-10-17T03:39:11.623Z,67.30
2018-10-17T03:41:41.908Z,67.30
2018-10-17T03:44:12.830Z,67.30
2018-10-17T03:46:44.540Z,67.30
2018-10-17T03:49:15.740Z,67.30
2018-10-17T03:51:47.189Z,67.40
2018-10-17T03:54:18.323Z,67.40
2018-10-17T03:56:48.768Z,67.30
2018-10-17T03:59:18.955Z,67.30
2018-10-17T04:01:51.884Z,67.10
2018-10-17T04:04:22.219Z,67.30
2018-10-17T04:06:53.805Z,67.20
2018-10-17T04:09:24.714Z,67.30
2018-10-17T04:11:55.227Z,67.30
2018-10-17T04:14:26.605Z,67.30
2018-10-17T04:16:57.242Z,67.40
2018-10-17T04:19:27.764Z,67.50
2018-10-17T04:21:58.761Z,67.40
2018-10-17T04:24:34.829Z,67.30
2018-10-17T04:27:04.952Z,67.20
2018-10-17T04:29:35.014Z,67.20
2018-10-17T04:32:06.108Z,67.40
2018-10-17T04:34:36.862Z,67.30
2018-10-17T04:37:07.492Z,67.20
2018-10-17T04:39:39.355Z,67.20
2018-10-17T04:42:13.396Z,67.10
2018-10-17T04:44:44.567Z,67.10
2018-10-17T04:47:14.775Z,67.00
2018-10-17T04:49:46.306Z,67.10
2018-10-17T04:52:16.911Z,67.10
2018-10-17T04:54:48.060Z,67.10
2018-10-17T04:57:18.708Z,67.40
2018-10-17T04:59:50.840Z,68.00
2018-10-17T05:02:21.464Z,67.50
2018-10-17T05:04:51.633Z,67.50
2018-10-17T05:07:23.047Z,67.60
2018-10-17T05:09:54.450Z,67.80
2018-10-17T05:12:25.719Z,68.00
2018-10-17T05:14:56.966Z,68.20
2018-10-17T05:17:28.994Z,68.40
2018-10-17T05:19:59.505Z,68.40
2018-10-17T05:22:30.508Z,69.30
2018-10-17T05:25:02.610Z,68.30
2018-10-17T05:27:36.013Z,68.40
2018-10-17T05:30:07.792Z,68.40
2018-10-17T05:32:39.361Z,68.20
2018-10-17T05:35:10.398Z,68.30
2018-10-17T05:37:42.738Z,68.20
2018-10-17T05:40:15.391Z,68.20
2018-10-17T05:42:46.436Z,68.20
2018-10-17T05:45:21.406Z,68.10
2018-10-17T05:47:53.144Z,68.10
2018-10-17T05:50:35.582Z,68.10
2018-10-17T05:53:07.545Z,68.00
2018-10-17T05:55:42.006Z,67.90
2018-10-17T05:58:14.448Z,68.00
2018-10-17T06:00:45.410Z,68.10
2018-10-17T06:03:18.784Z,68.10
2018-10-17T06:05:51.023Z,68.00
2018-10-17T06:08:23.180Z,68.10
2018-10-17T06:10:57.632Z,68.10
2018-10-17T06:13:29.611Z,68.00
2018-10-17T06:15:59.766Z,68.00
2018-10-17T06:18:31.234Z,67.80
2018-10-17T06:21:02.374Z,68.10
2018-10-17T06:23:34.689Z,68.20
2018-10-17T06:26:05.508Z,68.20
2018-10-17T06:28:35.514Z,68.30
2018-10-17T06:31:14.205Z,68.10
2018-10-17T06:33:45.561Z,68.10
2018-10-17T06:36:16.418Z,67.90
2018-10-17T06:38:47.145Z,67.60
2018-10-17T06:41:19.197Z,67.50
2018-10-17T06:43:50.269Z,67.50
2018-10-17T06:46:21.831Z,67.50
2018-10-17T06:48:54.282Z,67.50
2018-10-17T06:51:25.098Z,67.50
2018-10-17T06:53:59.641Z,67.50
2018-10-17T06:56:33.191Z,67.40
2018-10-17T06:59:09.479Z,67.30
2018-10-17T07:01:46.729Z,67.30
2018-10-17T07:04:18.646Z,67.20
2018-10-17T07:06:48.979Z,67.20
2018-10-17T07:09:20.806Z,67.20
2018-10-17T07:11:51.011Z,67.20
2018-10-17T07:14:23.549Z,67.30
2018-10-17T07:16:56.073Z,67.30
2018-10-17T07:19:29.287Z,67.30
2018-10-17T07:22:02.795Z,67.40
2018-10-17T07:24:32.738Z,67.30
2018-10-17T07:27:02.815Z,67.40
2018-10-17T07:29:33.251Z,67.30
2018-10-17T07:32:03.318Z,67.40
2018-10-17T07:34:35.531Z,67.30
2018-10-17T07:37:10.554Z,67.30
2018-10-17T07:39:43.394Z,67.30
2018-10-17T07:42:19.139Z,67.30
2018-10-17T07:44:50.233Z,67.40
2018-10-17T07:47:21.236Z,67.40
2018-10-17T07:49:54.464Z,67.50
2018-10-17T07:52:25.616Z,67.60
2018-10-17T07:54:56.612Z,67.60
2018-10-17T07:57:44.436Z,67.60
2018-10-17T08:00:28.267Z,67.60
2018-10-17T08:02:59.512Z,67.50
2018-10-17T08:05:30.782Z,67.60
2018-10-17T08:08:02.236Z,68.10
2018-10-17T08:10:52.699Z,67.60
2018-10-17T08:13:41.099Z,67.60
2018-10-17T08:16:12.122Z,67.60
2018-10-17T08:18:43.188Z,67.60
2018-10-17T08:21:13.882Z,67.70
2018-10-17T08:23:44.853Z,67.80
2018-10-17T08:26:18.356Z,67.80
2018-10-17T08:28:50.429Z,67.60
2018-10-17T08:31:21.865Z,67.70
2018-10-17T08:33:53.363Z,67.80
2018-10-17T08:36:24.456Z,67.70
2018-10-17T08:38:56.145Z,67.20
2018-10-17T08:41:26.509Z,67.90
2018-10-17T08:44:00.729Z,67.80
2018-10-17T08:46:32.170Z,67.90
2018-10-17T08:49:02.698Z,68.00
2018-10-17T08:51:33.475Z,67.90
2018-10-17T08:54:03.957Z,67.90
2018-10-17T08:56:34.172Z,68.00
2018-10-17T08:59:04.383Z,67.90
2018-10-17T09:01:35.853Z,67.90
2018-10-17T09:04:07.960Z,68.10
2018-10-17T09:06:38.197Z,68.10
2018-10-17T09:09:11.658Z,68.00
2018-10-17T09:11:42.579Z,68.00
2018-10-17T09:14:12.740Z,68.10
2018-10-17T09:16:43.548Z,68.00
2018-10-17T09:19:14.752Z,67.80
2018-10-17T09:21:45.381Z,67.70
2018-10-17T09:24:16.309Z,67.70
2018-10-17T09:26:46.265Z,67.80
2018-10-17T09:29:19.579Z,67.80
2018-10-17T09:31:51.440Z,67.80
2018-10-17T09:34:21.949Z,68.10
2018-10-17T09:37:01.724Z,68.10
2018-10-17T09:39:32.753Z,67.90
2018-10-17T09:42:09.666Z,68.20
2018-10-17T09:44:42.268Z,68.30
2018-10-17T09:47:14.300Z,68.10
2018-10-17T09:49:46.421Z,68.20
2018-10-17T09:52:17.765Z,68.60
2018-10-17T09:54:48.200Z,68.00
2018-10-17T09:57:18.964Z,68.20
2018-10-17T09:59:52.574Z,68.10
2018-10-17T10:02:23.424Z,67.90
2018-10-17T10:05:11.792Z,68.10
2018-10-17T10:07:42.223Z,68.20
2018-10-17T10:10:15.511Z,68.10
2018-10-17T10:12:49.288Z,68.10
2018-10-17T10:15:20.477Z,68.10
2018-10-17T10:17:50.848Z,68.10
2018-10-17T10:20:21.718Z,67.90
2018-10-17T10:22:53.285Z,67.80
2018-10-17T10:25:24.223Z,67.90
2018-10-17T10:28:20.538Z,68.40
2018-10-17T10:31:10.612Z,68.10
2018-10-17T10:33:42.351Z,68.80
2018-10-17T10:36:14.272Z,68.80
2018-10-17T10:38:45.029Z,67.90
2018-10-17T10:41:17.542Z,67.70
2018-10-17T10:43:52.303Z,67.60
2018-10-17T10:46:24.394Z,67.50
2018-10-17T10:48:59.707Z,67.30
2018-10-17T10:51:31.537Z,67.30
2018-10-17T10:54:20.776Z,67.10
2018-10-17T10:56:53.687Z,67.10
2018-10-17T10:59:25.745Z,67.00
2018-10-17T11:01:57.201Z,67.00
2018-10-17T11:04:46.597Z,66.70
2018-10-17T11:07:16.734Z,66.70
2018-10-17T11:09:47.185Z,66.80
2018-10-17T11:12:17.687Z,66.70
2018-10-17T11:14:48.600Z,66.70
2018-10-17T11:17:18.905Z,66.60
2018-10-17T11:19:53.885Z,66.50
2018-10-17T11:22:26.873Z,66.70
2018-10-17T11:25:09.208Z,66.50
2018-10-17T11:27:41.271Z,66.00
2018-10-17T11:30:12.695Z,66.20
2018-10-17T11:32:43.047Z,66.20
2018-10-17T11:35:13.748Z,66.00
2018-10-17T11:37:45.197Z,66.00
2018-10-17T11:40:15.735Z,65.90
2018-10-17T11:42:46.212Z,66.00
2018-10-17T11:45:16.867Z,65.80
2018-10-17T11:47:47.657Z,65.90
2018-10-17T11:50:17.857Z,66.30
2018-10-17T11:52:51.233Z,66.70
2018-10-17T11:55:23.138Z,66.40
2018-10-17T11:57:55.579Z,66.30
2018-10-17T12:00:26.774Z,66.30
2018-10-17T12:02:57.067Z,66.50
2018-10-17T12:05:28.570Z,66.60
2018-10-17T12:07:58.831Z,66.80
2018-10-17T12:10:30.415Z,66.50
2018-10-17T12:13:00.943Z,66.10
2018-10-17T12:15:31.464Z,65.80
2018-10-17T12:18:02.110Z,66.80
2018-10-17T12:20:33.025Z,66.30
2018-10-17T12:23:03.125Z,66.30
2018-10-17T12:25:34.735Z,66.00
2018-10-17T12:28:04.941Z,65.50
2018-10-17T12:30:35.889Z,65.30
2018-10-17T12:33:08.307Z,65.10
2018-10-17T12:35:39.197Z,64.60
2018-10-17T12:38:09.620Z,64.40
2018-10-17T12:40:40.670Z,64.10
2018-10-17T12:43:11.181Z,63.70
2018-10-17T12:45:43.073Z,63.40
2018-10-17T12:48:13.963Z,63.10
2018-10-17T12:50:44.389Z,62.90
2018-10-17T12:53:16.671Z,62.50
2018-10-17T12:55:47.294Z,62.40
2018-10-17T12:58:18.525Z,62.00
2018-10-17T13:00:48.816Z,61.50
2018-10-17T13:03:19.583Z,61.00
2018-10-17T13:05:49.708Z,60.60
2018-10-17T13:08:22.739Z,60.70
2018-10-17T13:10:53.207Z,60.50
2018-10-17T13:13:23.543Z,60.40
2018-10-17T13:15:56.868Z,60.10
2018-10-17T13:18:28.175Z,59.70
2018-10-17T13:21:01.299Z,59.50
2018-10-17T13:23:31.873Z,59.80
2018-10-17T13:26:02.951Z,60.30
2018-10-17T13:28:34.713Z,59.90
2018-10-17T13:31:06.972Z,59.90
2018-10-17T13:33:37.754Z,59.60
2018-10-17T13:36:09.219Z,59.50
2018-10-17T13:38:39.502Z,59.40
2018-10-17T13:41:10.620Z,59.30
2018-10-17T13:43:41.976Z,59.10
2018-10-17T13:46:21.274Z,58.80
2018-10-17T13:48:57.171Z,58.20
2018-10-17T13:51:37.581Z,57.70
2018-10-17T13:54:13.894Z,57.90
2018-10-17T13:56:47.611Z,57.70
2018-10-17T13:59:19.984Z,57.30
2018-10-17T14:01:51.441Z,56.60
2018-10-17T14:04:23.603Z,56.20
2018-10-17T14:06:56.230Z,55.40
2018-10-17T14:09:27.957Z,55.10
2018-10-17T14:11:59.458Z,54.50
2018-10-17T14:14:30.752Z,54.20
2018-10-17T14:17:01.374Z,54.10
2018-10-17T14:19:31.636Z,54.50
2018-10-17T14:22:03.327Z,54.10
2018-10-17T14:24:35.595Z,54.40
2018-10-17T14:27:07.415Z,55.00
2018-10-17T14:29:41.224Z,54.90
2018-10-17T14:32:19.815Z,55.30
2018-10-17T14:34:50.428Z,55.30
2018-10-17T14:37:20.645Z,55.20
2018-10-17T14:39:50.864Z,54.80
2018-10-17T14:42:21.126Z,54.60
2018-10-17T14:44:52.832Z,54.60
2018-10-17T14:47:22.679Z,54.30
2018-10-17T14:49:52.582Z,54.60
2018-10-17T14:52:25.667Z,54.70
2018-10-17T14:54:57.177Z,54.50
2018-10-17T14:57:28.038Z,54.10
2018-10-17T14:59:58.677Z,54.10
2018-10-17T15:02:29.592Z,54.30
2018-10-17T15:05:01.145Z,54.80
2018-10-17T15:07:31.758Z,55.40
2018-10-17T15:10:02.201Z,55.20
2018-10-17T15:12:33.683Z,55.50
2018-10-17T15:15:04.290Z,55.80
2018-10-17T15:17:34.626Z,55.90
2018-10-17T15:20:05.878Z,55.80
2018-10-17T15:22:37.154Z,55.70
2018-10-17T15:25:08.504Z,55.60
2018-10-17T15:27:38.941Z,55.70
2018-10-17T15:30:10.080Z,55.70
2018-10-17T15:32:40.751Z,55.40
2018-10-17T15:35:11.589Z,55.20
2018-10-17T15:37:42.705Z,55.20
2018-10-17T15:40:13.194Z,55.60
2018-10-17T15:42:46.177Z,54.80
2018-10-17T15:45:19.189Z,54.60
2018-10-17T15:47:50.120Z,54.40
2018-10-17T15:50:20.899Z,54.80
2018-10-17T15:52:53.586Z,54.80
2018-10-17T15:55:24.776Z,55.30
2018-10-17T15:57:55.908Z,55.20
2018-10-17T16:00:27.700Z,55.40
2018-10-17T16:02:58.841Z,55.60
2018-10-17T16:05:29.506Z,56.00
2018-10-17T16:07:59.713Z,56.20
2018-10-17T16:10:29.965Z,56.40
2018-10-17T16:13:01.666Z,56.50
2018-10-17T16:15:41.624Z,56.70
2018-10-17T16:18:13.864Z,57.00
2018-10-17T16:20:45.968Z,57.20
2018-10-17T16:23:16.481Z,57.20
2018-10-17T16:25:47.647Z,57.00
2018-10-17T16:28:19.561Z,57.40
2018-10-17T16:30:49.958Z,57.60
2018-10-17T16:33:22.843Z,57.80
2018-10-17T16:36:05.086Z,57.90
2018-10-17T16:38:35.893Z,57.80
2018-10-17T16:41:07.557Z,58.00
2018-10-17T16:43:42.345Z,58.10
2018-10-17T16:46:13.023Z,58.20
2018-10-17T16:48:43.374Z,58.40
2018-10-17T16:51:13.929Z,58.70
2018-10-17T16:53:44.254Z,58.90
2018-10-17T16:56:15.932Z,59.10
2018-10-17T16:58:47.480Z,59.30
2018-10-17T17:01:18.529Z,59.60
2018-10-17T17:03:48.644Z,60.10
2018-10-17T17:06:19.031Z,60.00
2018-10-17T17:08:50.245Z,60.20
2018-10-17T17:11:21.465Z,60.60
2018-10-17T17:13:52.830Z,61.00
2018-10-17T17:16:23.709Z,61.20
2018-10-17T17:18:54.898Z,61.50
2018-10-17T17:21:26.460Z,61.90
2018-10-17T17:23:56.981Z,62.10
2018-10-17T17:26:28.591Z,62.40
2018-10-17T17:29:00.431Z,62.70
2018-10-17T17:31:31.851Z,62.80
2018-10-17T17:34:03.607Z,63.00
2018-10-17T17:36:34.095Z,63.00
2018-10-17T17:39:05.803Z,63.00
2018-10-17T17:41:55.239Z,63.10
2018-10-17T17:44:32.394Z,62.90
2018-10-17T17:47:03.393Z,62.80
2018-10-17T17:49:33.522Z,62.80
2018-10-17T17:52:06.832Z,63.70
2018-10-17T17:54:39.750Z,63.00
2018-10-17T17:57:12.502Z,62.90
2018-10-17T17:59:46.570Z,62.80
2018-10-17T18:02:18.678Z,62.80
2018-10-17T18:07:36.822Z,62.50
2018-10-17T18:10:08.889Z,62.60
2018-10-17T18:12:39.853Z,62.60
2018-10-17T18:15:12.241Z,62.70
2018-10-17T18:17:42.814Z,62.70
2018-10-17T18:20:14.193Z,63.40
2018-10-17T18:22:46.638Z,62.80
2018-10-17T18:25:18.800Z,62.80
2018-10-17T18:27:50.735Z,63.00
2018-10-17T18:30:23.947Z,63.00
2018-10-17T18:32:55.371Z,63.00
2018-10-17T18:35:26.397Z,63.20
2018-10-17T18:37:58.868Z,63.30
2018-10-17T18:40:30.158Z,63.50
2018-10-17T18:43:00.769Z,63.60
2018-10-17T18:45:31.461Z,64.00
2018-10-17T18:48:02.479Z,64.60
2018-10-17T18:50:35.504Z,64.90
2018-10-17T18:53:07.075Z,65.70
2018-10-17T18:55:37.845Z,66.20
2018-10-17T18:58:08.536Z,66.60
2018-10-17T19:00:39.649Z,66.90
2018-10-17T19:03:12.647Z,66.90
2018-10-17T19:05:49.954Z,66.60
2018-10-17T19:08:21.846Z,66.30
2018-10-17T19:10:52.550Z,66.40
2018-10-17T19:13:23.750Z,66.30
2018-10-17T19:15:56.129Z,66.20
2018-10-17T19:18:27.077Z,66.10
2018-10-17T19:21:01.751Z,66.10
2018-10-17T19:23:33.911Z,66.00
2018-10-17T19:26:04.049Z,65.90
2018-10-17T19:28:34.121Z,66.00
2018-10-17T19:31:04.178Z,66.00
2018-10-17T19:33:36.207Z,65.90
2018-10-17T19:36:06.687Z,65.90
2018-10-17T19:38:37.547Z,65.90
2018-10-17T19:41:10.210Z,65.90
2018-10-17T19:43:43.633Z,65.70
2018-10-17T19:46:42.887Z,65.70
2018-10-17T19:49:14.482Z,65.90
2018-10-17T19:51:47.249Z,65.90
2018-10-17T19:54:24.517Z,65.90
2018-10-17T19:57:03.825Z,66.20
2018-10-17T19:59:34.293Z,65.90
2018-10-17T20:02:06.763Z,66.10
2018-10-17T20:04:42.286Z,66.00
2018-10-17T20:07:19.618Z,66.00
2018-10-17T20:09:52.044Z,66.50
2018-10-17T20:12:25.080Z,66.20
2018-10-17T20:14:57.247Z,66.00
2018-10-17T20:17:28.086Z,66.10
2018-10-17T20:20:02.848Z,66.20
2018-10-17T20:22:33.694Z,66.20
2018-10-17T20:25:07.807Z,66.30
2018-10-17T20:27:39.352Z,66.30
2018-10-17T20:30:10.676Z,66.50
2018-10-17T20:32:41.268Z,66.50
2018-10-17T20:35:11.639Z,66.80
2018-10-17T20:37:43.357Z,66.80
2018-10-17T20:40:15.001Z,66.30
2018-10-17T20:42:46.805Z,67.00
2018-10-17T20:45:18.585Z,67.10
2018-10-17T20:47:49.282Z,67.10
2018-10-17T20:50:20.604Z,68.10
2018-10-17T20:52:51.741Z,67.50
2018-10-17T20:55:22.589Z,67.60
2018-10-17T20:57:54.971Z,67.50
2018-10-17T21:00:25.386Z,67.40
2018-10-17T21:02:56.140Z,67.20
2018-10-17T21:05:27.058Z,67.10
2018-10-17T21:07:57.434Z,67.10
2018-10-17T21:10:28.861Z,67.20
2018-10-17T21:13:00.429Z,67.30
2018-10-17T21:15:31.935Z,67.00
2018-10-17T21:18:02.075Z,67.10
2018-10-17T21:20:33.491Z,67.10
2018-10-17T21:23:03.861Z,67.00
2018-10-17T21:25:33.987Z,67.00
2018-10-17T21:28:05.172Z,67.00
2018-10-17T21:30:36.039Z,67.10
2018-10-17T21:33:09.359Z,67.20
2018-10-17T21:35:41.782Z,67.30
2018-10-17T21:38:13.759Z,67.20
2018-10-17T21:40:44.829Z,67.10
2018-10-17T21:43:15.615Z,67.20
2018-10-17T21:45:45.926Z,67.20
2018-10-17T21:48:17.063Z,67.10
2018-10-17T21:50:47.346Z,67.00
2018-10-17T21:53:18.466Z,67.00
2018-10-17T21:55:48.988Z,67.00
2018-10-17T21:58:19.441Z,67.10
2018-10-17T22:00:50.405Z,67.10
2018-10-17T22:03:20.844Z,67.20
2018-10-17T22:05:53.030Z,67.30
2018-10-17T22:08:23.781Z,67.40
2018-10-17T22:10:55.980Z,67.30
2018-10-17T22:13:26.968Z,67.50
2018-10-17T22:15:58.148Z,67.40
2018-10-17T22:18:28.621Z,67.50
2018-10-17T22:21:00.566Z,67.40
2018-10-17T22:23:33.055Z,67.40
2018-10-17T22:26:03.034Z,67.30
2018-10-17T22:28:33.147Z,67.40
2018-10-17T22:31:03.554Z,67.30
2018-10-17T22:33:36.321Z,67.30
2018-10-17T22:36:09.218Z,67.20
2018-10-17T22:38:39.456Z,67.20
2018-10-17T22:41:11.608Z,67.10
2018-10-17T22:43:42.703Z,67.10
2018-10-17T22:46:15.686Z,67.10
2018-10-17T22:48:45.861Z,67.20
2018-10-17T22:51:16.552Z,67.30
2018-10-17T22:53:46.742Z,67.40
2018-10-17T22:56:18.108Z,67.50
2018-10-17T22:58:49.454Z,67.50
2018-10-17T23:01:20.097Z,67.60
2018-10-17T23:03:51.101Z,67.60
2018-10-17T23:06:22.015Z,67.60
2018-10-17T23:08:54.384Z,67.60
2018-10-17T23:11:25.198Z,67.50
2018-10-17T23:13:55.604Z,67.50
2018-10-17T23:16:26.523Z,67.50
2018-10-17T23:18:57.255Z,67.80
2018-10-17T23:21:27.572Z,68.40
2018-10-17T23:23:57.633Z,67.60
2018-10-17T23:26:28.846Z,67.60
2018-10-17T23:28:59.802Z,67.50
2018-10-17T23:31:30.613Z,67.50
2018-10-17T23:34:01.386Z,67.60
2018-10-17T23:36:32.126Z,67.70
2018-10-17T23:39:02.645Z,67.90
2018-10-17T23:41:32.992Z,67.90
2018-10-17T23:44:04.392Z,68.10
2018-10-17T23:46:34.504Z,68.10
2018-10-17T23:49:04.972Z,68.20
2018-10-17T23:51:35.658Z,68.20
2018-10-17T23:54:07.291Z,68.30
2018-10-17T23:56:37.496Z,68.30
2018-10-17T23:59:07.807Z,68.30
